sensor_id;sensor_type;location;lat;lon;timestamp;temperature;humidity
10662;DHT22;5379;51.034;7.006;2024-03-02T00:00:19;10.50;99.90
10662;DHT22;5379;51.034;7.006;2024-03-02T00:02:48;10.50;99.90
10662;DHT22;5379;51.034;7.006;2024-03-02T00:05:17;10.60;99.90
10662;DHT22;5379;51.034;7.006;2024-03-02T00:07:47;10.60;99.90
10662;DHT22;5379;51.034;7.006;2024-03-02T00:10:16;10.50;99.90
10662;DHT22;5379;51.034;7.006;2024-03-02T00:12:47;10.50;99.90
10662;DHT22;5379;51.034;7.006;2024-03-02T00:15:32;10.40;99.90
10662;DHT22;5379;51.034;7.006;2024-03-02T00:18:03;10.40;99.90
10662;DHT22;5379;51.034;7.006;2024-03-02T00:20:31;10.40;99.90
10662;DHT22;5379;51.034;7.006;2024-03-02T00:23:03;10.50;99.90
10662;DHT22;5379;51.034;7.006;2024-03-02T00:25:39;10.60;99.90
10662;DHT22;5379;51.034;7.006;2024-03-02T00:28:13;10.50;99.90
10662;DHT22;5379;51.034;7.006;2024-03-02T00:30:59;10.50;99.90
10662;DHT22;5379;51.034;7.006;2024-03-02T00:33:28;10.70;99.90
10662;DHT22;5379;51.034;7.006;2024-03-02T00:35:56;10.80;99.90
10662;DHT22;5379;51.034;7.006;2024-03-02T00:38:26;10.70;99.90
10662;DHT22;5379;51.034;7.006;2024-03-02T00:40:54;10.70;99.90
10662;DHT22;5379;51.034;7.006;2024-03-02T00:43:59;10.70;99.90
10662;DHT22;5379;51.034;7.006;2024-03-02T00:46:29;10.70;99.90
10662;DHT22;5379;51.034;7.006;2024-03-02T00:48:57;10.70;99.90
10662;DHT22;5379;51.034;7.006;2024-03-02T00:51:25;10.60;99.90
10662;DHT22;5379;51.034;7.006;2024-03-02T00:53:55;10.80;99.90
10662;DHT22;5379;51.034;7.006;2024-03-02T00:56:23;11.90;99.90
10662;DHT22;5379;51.034;7.006;2024-03-02T00:58:50;10.80;99.90
10662;DHT22;5379;51.034;7.006;2024-03-02T05:31:04;9.90;99.90
10662;DHT22;5379;51.034;7.006;2024-03-02T05:33:32;9.90;99.90
10662;DHT22;5379;51.034;7.006;2024-03-02T05:35:59;9.70;99.90
10662;DHT22;5379;51.034;7.006;2024-03-02T05:38:27;9.70;99.90
10662;DHT22;5379;51.034;7.006;2024-03-02T05:40:54;9.70;99.90
10662;DHT22;5379;51.034;7.006;2024-03-02T05:43:20;9.50;99.90
10662;DHT22;5379;51.034;7.006;2024-03-02T05:45:47;9.60;99.90
10662;DHT22;5379;51.034;7.006;2024-03-02T05:48:16;9.60;99.90
10662;DHT22;5379;51.034;7.006;2024-03-02T05:50:42;9.70;99.90
10662;DHT22;5379;51.034;7.006;2024-03-02T05:53:09;9.70;99.90
10662;DHT22;5379;51.034;7.006;2024-03-02T05:55:36;9.70;99.90
10662;DHT22;5379;51.034;7.006;2024-03-02T05:58:03;9.60;99.90
10662;DHT22;5379;51.034;7.006;2024-03-02T06:00:45;9.70;99.90
10662;DHT22;5379;51.034;7.006;2024-03-02T06:03:12;9.50;99.90
10662;DHT22;5379;51.034;7.006;2024-03-02T06:05:40;9.50;99.90
10662;DHT22;5379;51.034;7.006;2024-03-02T06:08:07;9.30;99.90
10662;DHT22;5379;51.034;7.006;2024-03-02T06:10:34;9.40;99.90
10662;DHT22;5379;51.034;7.006;2024-03-02T06:13:00;9.40;99.90
10662;DHT22;5379;51.034;7.006;2024-03-02T06:15:27;9.40;99.90
10662;DHT22;5379;51.034;7.006;2024-03-02T06:17:54;9.50;99.90
10662;DHT22;5379;51.034;7.006;2024-03-02T06:20:21;9.50;99.90
10662;DHT22;5379;51.034;7.006;2024-03-02T06:22:49;9.50;99.90
10662;DHT22;5379;51.034;7.006;2024-03-02T06:25:15;9.40;99.90
10662;DHT22;5379;51.034;7.006;2024-03-02T06:27:42;9.40;99.90
10662;DHT22;5379;51.034;7.006;2024-03-02T06:30:10;9.40;99.90
10662;DHT22;5379;51.034;7.006;2024-03-02T06:32:37;9.40;99.90
10662;DHT22;5379;51.034;7.006;2024-03-02T06:35:04;9.30;99.90
10662;DHT22;5379;51.034;7.006;2024-03-02T06:37:34;9.40;99.90
10662;DHT22;5379;51.034;7.006;2024-03-02T06:40:02;9.40;99.90
10662;DHT22;5379;51.034;7.006;2024-03-02T06:42:29;9.40;99.90
10662;DHT22;5379;51.034;7.006;2024-03-02T06:44:58;10.20;99.90
10662;DHT22;5379;51.034;7.006;2024-03-02T06:47:25;9.70;99.90
10662;DHT22;5379;51.034;7.006;2024-03-02T06:49:52;9.80;99.90
10662;DHT22;5379;51.034;7.006;2024-03-02T06:52:19;9.80;99.90
10662;DHT22;5379;51.034;7.006;2024-03-02T06:54:46;9.60;99.90
10662;DHT22;5379;51.034;7.006;2024-03-02T06:57:14;10.70;99.90
10662;DHT22;5379;51.034;7.006;2024-03-02T06:59:42;9.60;99.90
10662;DHT22;5379;51.034;7.006;2024-03-02T07:02:09;9.70;99.90
10662;DHT22;5379;51.034;7.006;2024-03-02T07:04:35;9.60;99.90
10662;DHT22;5379;51.034;7.006;2024-03-02T07:07:02;9.70;99.90
10662;DHT22;5379;51.034;7.006;2024-03-02T07:09:29;9.70;99.90
10662;DHT22;5379;51.034;7.006;2024-03-02T07:11:56;9.80;99.90
10662;DHT22;5379;51.034;7.006;2024-03-02T07:14:24;9.80;99.90
10662;DHT22;5379;51.034;7.006;2024-03-02T07:17:12;9.70;99.90
10662;DHT22;5379;51.034;7.006;2024-03-02T07:19:38;9.90;99.90
10662;DHT22;5379;51.034;7.006;2024-03-02T07:22:06;9.90;99.90
10662;DHT22;5379;51.034;7.006;2024-03-02T07:24:39;9.90;99.90
10662;DHT22;5379;51.034;7.006;2024-03-02T07:27:07;10.00;99.90
10662;DHT22;5379;51.034;7.006;2024-03-02T07:29:36;10.10;99.90
10662;DHT22;5379;51.034;7.006;2024-03-02T07:32:03;10.20;99.90
10662;DHT22;5379;51.034;7.006;2024-03-02T07:34:30;10.20;99.90
10662;DHT22;5379;51.034;7.006;2024-03-02T07:36:57;10.30;99.90
10662;DHT22;5379;51.034;7.006;2024-03-02T07:39:24;10.40;99.90
10662;DHT22;5379;51.034;7.006;2024-03-02T07:41:51;10.70;99.90
10662;DHT22;5379;51.034;7.006;2024-03-02T07:44:18;10.50;99.90
10662;DHT22;5379;51.034;7.006;2024-03-02T07:46:46;10.70;99.90
10662;DHT22;5379;51.034;7.006;2024-03-02T07:49:15;10.80;99.90
10662;DHT22;5379;51.034;7.006;2024-03-02T07:51:42;11.40;99.90
10662;DHT22;5379;51.034;7.006;2024-03-02T07:54:09;11.00;99.90
10662;DHT22;5379;51.034;7.006;2024-03-02T07:56:36;13.30;99.90
10662;DHT22;5379;51.034;7.006;2024-03-02T07:59:02;10.90;99.90
10662;DHT22;5379;51.034;7.006;2024-03-02T08:01:30;10.90;99.90
10662;DHT22;5379;51.034;7.006;2024-03-02T08:03:59;11.10;99.90
10662;DHT22;5379;51.034;7.006;2024-03-02T08:06:26;11.00;99.90
10662;DHT22;5379;51.034;7.006;2024-03-02T08:08:54;10.90;99.90
10662;DHT22;5379;51.034;7.006;2024-03-02T08:11:21;10.90;99.90
10662;DHT22;5379;51.034;7.006;2024-03-02T08:13:47;10.90;99.90
10662;DHT22;5379;51.034;7.006;2024-03-02T08:16:15;10.90;99.90
10662;DHT22;5379;51.034;7.006;2024-03-02T08:18:44;10.90;99.90
10662;DHT22;5379;51.034;7.006;2024-03-02T08:21:12;11.10;99.90
10662;DHT22;5379;51.034;7.006;2024-03-02T08:23:39;11.20;99.90
10662;DHT22;5379;51.034;7.006;2024-03-02T08:26:07;11.30;99.90
10662;DHT22;5379;51.034;7.006;2024-03-02T08:28:34;11.40;99.90
10662;DHT22;5379;51.034;7.006;2024-03-02T08:31:02;11.30;99.90
10662;DHT22;5379;51.034;7.006;2024-03-02T08:33:29;11.20;99.90
10662;DHT22;5379;51.034;7.006;2024-03-02T08:35:56;11.30;99.90
10662;DHT22;5379;51.034;7.006;2024-03-02T08:38:24;11.50;99.90
10662;DHT22;5379;51.034;7.006;2024-03-02T08:40:51;11.70;99.90
10662;DHT22;5379;51.034;7.006;2024-03-02T08:43:19;11.80;99.90
10662;DHT22;5379;51.034;7.006;2024-03-02T08:45:45;11.80;99.90
10662;DHT22;5379;51.034;7.006;2024-03-02T08:48:12;11.90;99.90
10662;DHT22;5379;51.034;7.006;2024-03-02T08:50:39;12.00;99.90
10662;DHT22;5379;51.034;7.006;2024-03-02T08:53:06;12.00;99.90
10662;DHT22;5379;51.034;7.006;2024-03-02T08:55:34;12.20;99.90
10662;DHT22;5379;51.034;7.006;2024-03-02T08:58:01;12.20;99.90
10662;DHT22;5379;51.034;7.006;2024-03-02T09:00:28;12.30;99.90
10662;DHT22;5379;51.034;7.006;2024-03-02T09:02:54;12.50;99.90
10662;DHT22;5379;51.034;7.006;2024-03-02T09:05:21;12.40;99.90
10662;DHT22;5379;51.034;7.006;2024-03-02T09:07:48;12.30;99.90
10662;DHT22;5379;51.034;7.006;2024-03-02T09:10:15;12.30;99.90
10662;DHT22;5379;51.034;7.006;2024-03-02T09:12:43;12.30;99.90
10662;DHT22;5379;51.034;7.006;2024-03-02T09:15:10;12.50;99.90
10662;DHT22;5379;51.034;7.006;2024-03-02T09:17:36;12.50;99.90
10662;DHT22;5379;51.034;7.006;2024-03-02T09:20:04;14.40;99.90
10662;DHT22;5379;51.034;7.006;2024-03-02T09:22:31;12.60;99.90
10662;DHT22;5379;51.034;7.006;2024-03-02T09:24:57;12.80;99.90
10662;DHT22;5379;51.034;7.006;2024-03-02T09:27:24;13.20;99.90
10662;DHT22;5379;51.034;7.006;2024-03-02T09:29:52;13.20;99.90
10662;DHT22;5379;51.034;7.006;2024-03-02T09:32:19;13.20;99.90
10662;DHT22;5379;51.034;7.006;2024-03-02T09:34:46;13.10;99.90
10662;DHT22;5379;51.034;7.006;2024-03-02T09:37:13;12.90;99.90
10662;DHT22;5379;51.034;7.006;2024-03-02T09:39:43;13.10;99.90
10662;DHT22;5379;51.034;7.006;2024-03-02T09:42:10;13.10;99.90
10662;DHT22;5379;51.034;7.006;2024-03-02T09:44:38;13.60;99.90
10662;DHT22;5379;51.034;7.006;2024-03-02T09:47:07;13.80;99.90
10662;DHT22;5379;51.034;7.006;2024-03-02T09:49:34;14.00;99.90
10662;DHT22;5379;51.034;7.006;2024-03-02T09:52:01;14.10;99.90
10662;DHT22;5379;51.034;7.006;2024-03-02T09:54:29;14.00;99.90
10662;DHT22;5379;51.034;7.006;2024-03-02T09:56:56;14.10;99.90
10662;DHT22;5379;51.034;7.006;2024-03-02T09:59:23;13.80;99.90
10662;DHT22;5379;51.034;7.006;2024-03-02T10:01:56;13.60;99.90
10662;DHT22;5379;51.034;7.006;2024-03-02T10:04:26;13.80;99.90
10662;DHT22;5379;51.034;7.006;2024-03-02T10:07:10;13.60;99.90
10662;DHT22;5379;51.034;7.006;2024-03-02T10:09:37;13.70;99.90
10662;DHT22;5379;51.034;7.006;2024-03-02T10:12:05;13.90;99.90
10662;DHT22;5379;51.034;7.006;2024-03-02T10:14:32;13.90;99.90
10662;DHT22;5379;51.034;7.006;2024-03-02T10:17:02;13.90;99.90
10662;DHT22;5379;51.034;7.006;2024-03-02T10:19:31;13.90;99.90
10662;DHT22;5379;51.034;7.006;2024-03-02T10:22:00;13.90;99.90
10662;DHT22;5379;51.034;7.006;2024-03-02T10:24:34;13.80;99.90
10662;DHT22;5379;51.034;7.006;2024-03-02T10:27:02;13.80;99.90
10662;DHT22;5379;51.034;7.006;2024-03-02T10:29:29;13.70;99.90
10662;DHT22;5379;51.034;7.006;2024-03-02T10:31:57;13.80;99.90
10662;DHT22;5379;51.034;7.006;2024-03-02T10:34:24;14.10;99.90
10662;DHT22;5379;51.034;7.006;2024-03-02T10:36:53;14.30;99.90
10662;DHT22;5379;51.034;7.006;2024-03-02T10:39:21;14.40;99.90
10662;DHT22;5379;51.034;7.006;2024-03-02T10:41:49;14.50;99.90
10662;DHT22;5379;51.034;7.006;2024-03-02T10:44:18;14.60;99.90
10662;DHT22;5379;51.034;7.006;2024-03-02T10:46:46;14.40;99.90
10662;DHT22;5379;51.034;7.006;2024-03-02T10:49:13;14.70;99.90
10662;DHT22;5379;51.034;7.006;2024-03-02T10:51:40;14.90;99.90
10662;DHT22;5379;51.034;7.006;2024-03-02T10:54:09;14.90;99.90
10662;DHT22;5379;51.034;7.006;2024-03-02T10:56:39;15.10;99.90
10662;DHT22;5379;51.034;7.006;2024-03-02T10:59:15;14.80;99.90
10662;DHT22;5379;51.034;7.006;2024-03-02T11:01:44;14.80;99.90
10662;DHT22;5379;51.034;7.006;2024-03-02T11:04:13;15.40;99.90
10662;DHT22;5379;51.034;7.006;2024-03-02T11:06:44;16.20;99.90
10662;DHT22;5379;51.034;7.006;2024-03-02T11:09:18;16.80;99.90
10662;DHT22;5379;51.034;7.006;2024-03-02T11:11:52;16.60;98.50
10662;DHT22;5379;51.034;7.006;2024-03-02T11:14:24;16.30;98.80
10662;DHT22;5379;51.034;7.006;2024-03-02T11:16:51;16.00;99.70
10662;DHT22;5379;51.034;7.006;2024-03-02T11:19:19;15.90;99.20
10662;DHT22;5379;51.034;7.006;2024-03-02T11:21:46;16.20;99.30
10662;DHT22;5379;51.034;7.006;2024-03-02T11:27:07;16.20;98.70
10662;DHT22;5379;51.034;7.006;2024-03-02T11:29:43;16.50;99.90
10662;DHT22;5379;51.034;7.006;2024-03-02T11:32:15;16.70;99.20
10662;DHT22;5379;51.034;7.006;2024-03-02T11:34:43;16.10;98.70
10662;DHT22;5379;51.034;7.006;2024-03-02T11:37:12;16.30;99.90
10662;DHT22;5379;51.034;7.006;2024-03-02T11:39:40;17.00;99.30
10662;DHT22;5379;51.034;7.006;2024-03-02T11:42:08;16.30;98.30
10662;DHT22;5379;51.034;7.006;2024-03-02T11:44:36;16.10;99.30
10662;DHT22;5379;51.034;7.006;2024-03-02T11:47:06;16.40;99.80
10662;DHT22;5379;51.034;7.006;2024-03-02T11:49:37;16.80;99.50
10662;DHT22;5379;51.034;7.006;2024-03-02T11:52:05;16.80;99.90
10662;DHT22;5379;51.034;7.006;2024-03-02T11:54:36;17.10;99.90
10662;DHT22;5379;51.034;7.006;2024-03-02T11:57:05;17.20;98.40
10662;DHT22;5379;51.034;7.006;2024-03-02T11:59:34;17.20;99.90
10662;DHT22;5379;51.034;7.006;2024-03-02T12:02:01;17.20;97.90
10662;DHT22;5379;51.034;7.006;2024-03-02T12:04:29;17.20;99.90
10662;DHT22;5379;51.034;7.006;2024-03-02T12:06:56;17.30;98.20
10662;DHT22;5379;51.034;7.006;2024-03-02T12:09:25;17.20;98.40
10662;DHT22;5379;51.034;7.006;2024-03-02T12:12:02;17.00;99.90
10662;DHT22;5379;51.034;7.006;2024-03-02T12:14:29;16.90;99.00
10662;DHT22;5379;51.034;7.006;2024-03-02T12:16:58;17.00;99.10
10662;DHT22;5379;51.034;7.006;2024-03-02T12:19:25;16.50;99.80
10662;DHT22;5379;51.034;7.006;2024-03-02T12:21:52;16.90;99.90
10662;DHT22;5379;51.034;7.006;2024-03-02T12:24:20;17.30;99.90
10662;DHT22;5379;51.034;7.006;2024-03-02T12:26:48;17.70;98.70
10662;DHT22;5379;51.034;7.006;2024-03-02T12:29:15;17.90;98.50
10662;DHT22;5379;51.034;7.006;2024-03-02T12:31:42;17.50;98.10
10662;DHT22;5379;51.034;7.006;2024-03-02T12:34:12;17.40;98.50
10662;DHT22;5379;51.034;7.006;2024-03-02T12:36:40;17.90;99.90
10662;DHT22;5379;51.034;7.006;2024-03-02T12:39:08;18.10;98.90
10662;DHT22;5379;51.034;7.006;2024-03-02T12:41:36;17.80;98.20
10662;DHT22;5379;51.034;7.006;2024-03-02T12:44:03;17.90;99.60
10662;DHT22;5379;51.034;7.006;2024-03-02T12:46:30;18.30;99.90
10662;DHT22;5379;51.034;7.006;2024-03-02T12:48:57;18.40;99.10
10662;DHT22;5379;51.034;7.006;2024-03-02T12:51:25;18.40;98.70
10662;DHT22;5379;51.034;7.006;2024-03-02T12:53:55;18.70;99.70
10662;DHT22;5379;51.034;7.006;2024-03-02T12:56:24;20.50;99.90
10662;DHT22;5379;51.034;7.006;2024-03-02T12:58:53;19.00;99.60
10662;DHT22;5379;51.034;7.006;2024-03-02T13:01:20;20.00;99.90
10662;DHT22;5379;51.034;7.006;2024-03-02T13:03:48;18.90;97.90
10662;DHT22;5379;51.034;7.006;2024-03-02T13:06:16;19.10;98.60
10662;DHT22;5379;51.034;7.006;2024-03-02T13:08:45;18.90;99.80
10662;DHT22;5379;51.034;7.006;2024-03-02T13:11:12;18.70;97.70
10662;DHT22;5379;51.034;7.006;2024-03-02T13:13:39;18.80;99.30
10662;DHT22;5379;51.034;7.006;2024-03-02T13:16:08;18.70;99.90
10662;DHT22;5379;51.034;7.006;2024-03-02T13:18:36;19.20;99.90
10662;DHT22;5379;51.034;7.006;2024-03-02T13:21:03;19.40;98.90
10662;DHT22;5379;51.034;7.006;2024-03-02T13:23:30;19.40;97.80
10662;DHT22;5379;51.034;7.006;2024-03-02T13:25:58;19.10;98.00
10662;DHT22;5379;51.034;7.006;2024-03-02T13:28:25;19.10;98.40
10662;DHT22;5379;51.034;7.006;2024-03-02T13:30:52;19.30;99.40
10662;DHT22;5379;51.034;7.006;2024-03-02T13:33:19;19.00;99.80
10662;DHT22;5379;51.034;7.006;2024-03-02T13:35:48;19.10;99.50
10662;DHT22;5379;51.034;7.006;2024-03-02T13:38:15;19.40;98.00
10662;DHT22;5379;51.034;7.006;2024-03-02T13:40:42;18.80;99.00
10662;DHT22;5379;51.034;7.006;2024-03-02T13:43:10;18.80;97.80
10662;DHT22;5379;51.034;7.006;2024-03-02T13:45:37;18.80;97.90
10662;DHT22;5379;51.034;7.006;2024-03-02T13:48:05;18.60;98.10
10662;DHT22;5379;51.034;7.006;2024-03-02T13:50:32;18.50;99.40
10662;DHT22;5379;51.034;7.006;2024-03-02T13:52:58;18.50;98.10
10662;DHT22;5379;51.034;7.006;2024-03-02T13:55:25;17.80;98.10
10662;DHT22;5379;51.034;7.006;2024-03-02T13:57:52;17.70;97.60
10662;DHT22;5379;51.034;7.006;2024-03-02T14:00:20;18.10;98.50
10662;DHT22;5379;51.034;7.006;2024-03-02T14:02:47;18.20;99.90
10662;DHT22;5379;51.034;7.006;2024-03-02T14:05:15;18.90;99.90
10662;DHT22;5379;51.034;7.006;2024-03-02T14:07:42;19.00;97.60
10662;DHT22;5379;51.034;7.006;2024-03-02T14:10:09;19.00;98.90
10662;DHT22;5379;51.034;7.006;2024-03-02T14:12:36;19.00;99.10
10662;DHT22;5379;51.034;7.006;2024-03-02T14:15:04;19.50;98.40
10662;DHT22;5379;51.034;7.006;2024-03-02T14:17:32;19.30;99.50
10662;DHT22;5379;51.034;7.006;2024-03-02T14:19:59;19.30;99.80
10662;DHT22;5379;51.034;7.006;2024-03-02T14:22:26;19.20;97.80
10662;DHT22;5379;51.034;7.006;2024-03-02T14:24:53;19.10;98.80
10662;DHT22;5379;51.034;7.006;2024-03-02T14:27:19;18.90;98.70
10662;DHT22;5379;51.034;7.006;2024-03-02T14:29:46;18.70;97.10
10662;DHT22;5379;51.034;7.006;2024-03-02T14:32:13;18.90;99.90
10662;DHT22;5379;51.034;7.006;2024-03-02T14:34:41;19.00;99.50
10662;DHT22;5379;51.034;7.006;2024-03-02T14:37:08;19.30;99.90
10662;DHT22;5379;51.034;7.006;2024-03-02T14:39:35;19.20;99.90
10662;DHT22;5379;51.034;7.006;2024-03-02T14:42:02;19.00;98.80
10662;DHT22;5379;51.034;7.006;2024-03-02T14:44:29;19.20;99.20
10662;DHT22;5379;51.034;7.006;2024-03-02T14:46:55;19.20;99.60
10662;DHT22;5379;51.034;7.006;2024-03-02T14:49:23;19.30;99.20
10662;DHT22;5379;51.034;7.006;2024-03-02T14:51:52;19.40;98.70
10662;DHT22;5379;51.034;7.006;2024-03-02T14:54:18;19.60;98.30
10662;DHT22;5379;51.034;7.006;2024-03-02T14:56:45;19.80;99.50
10662;DHT22;5379;51.034;7.006;2024-03-02T14:59:12;19.70;98.80
10662;DHT22;5379;51.034;7.006;2024-03-02T15:01:39;20.20;99.20
10662;DHT22;5379;51.034;7.006;2024-03-02T15:04:06;19.70;97.50
10662;DHT22;5379;51.034;7.006;2024-03-02T15:06:32;19.30;97.40
10662;DHT22;5379;51.034;7.006;2024-03-02T15:09:01;19.40;97.40
10662;DHT22;5379;51.034;7.006;2024-03-02T15:11:28;20.10;98.20
10662;DHT22;5379;51.034;7.006;2024-03-02T15:13:55;19.90;97.00
10662;DHT22;5379;51.034;7.006;2024-03-02T15:16:22;19.20;98.90
10662;DHT22;5379;51.034;7.006;2024-03-02T15:18:49;19.40;98.90
10662;DHT22;5379;51.034;7.006;2024-03-02T15:21:16;19.30;97.30
10662;DHT22;5379;51.034;7.006;2024-03-02T15:23:44;19.50;97.30
10662;DHT22;5379;51.034;7.006;2024-03-02T15:26:12;19.60;97.10
10662;DHT22;5379;51.034;7.006;2024-03-02T15:28:39;19.40;98.30
10662;DHT22;5379;51.034;7.006;2024-03-02T15:31:06;19.40;97.90
10662;DHT22;5379;51.034;7.006;2024-03-02T15:33:33;20.00;98.00
10662;DHT22;5379;51.034;7.006;2024-03-02T15:36:00;19.80;97.70
10662;DHT22;5379;51.034;7.006;2024-03-02T15:38:27;19.60;96.90
10662;DHT22;5379;51.034;7.006;2024-03-02T15:40:54;19.30;97.30
10662;DHT22;5379;51.034;7.006;2024-03-02T15:43:26;19.60;98.40
10662;DHT22;5379;51.034;7.006;2024-03-02T15:49:45;19.70;97.30
10662;DHT22;5379;51.034;7.006;2024-03-02T15:52:14;19.30;99.10
10662;DHT22;5379;51.034;7.006;2024-03-02T16:07:38;19.70;95.70
10662;DHT22;5379;51.034;7.006;2024-03-02T16:10:08;20.50;95.90
10662;DHT22;5379;51.034;7.006;2024-03-02T16:12:35;19.80;96.60
10662;DHT22;5379;51.034;7.006;2024-03-02T16:15:02;19.00;95.10
10662;DHT22;5379;51.034;7.006;2024-03-02T16:17:29;19.00;95.50
10662;DHT22;5379;51.034;7.006;2024-03-02T16:19:57;19.30;95.80
10662;DHT22;5379;51.034;7.006;2024-03-02T16:22:24;19.10;95.10
10662;DHT22;5379;51.034;7.006;2024-03-02T16:24:53;19.40;97.40
10662;DHT22;5379;51.034;7.006;2024-03-02T16:27:19;19.80;97.80
10662;DHT22;5379;51.034;7.006;2024-03-02T16:29:46;20.30;97.80
10662;DHT22;5379;51.034;7.006;2024-03-02T16:32:13;19.40;97.70
10662;DHT22;5379;51.034;7.006;2024-03-02T16:34:40;19.30;95.90
10662;DHT22;5379;51.034;7.006;2024-03-02T16:37:08;19.30;95.60
10662;DHT22;5379;51.034;7.006;2024-03-02T16:39:35;19.60;99.50
10662;DHT22;5379;51.034;7.006;2024-03-02T16:42:02;19.80;97.80
10662;DHT22;5379;51.034;7.006;2024-03-02T16:44:29;19.80;98.50
10662;DHT22;5379;51.034;7.006;2024-03-02T16:46:56;19.80;94.40
10662;DHT22;5379;51.034;7.006;2024-03-02T16:49:22;19.70;96.90
10662;DHT22;5379;51.034;7.006;2024-03-02T16:51:49;20.00;97.50
10662;DHT22;5379;51.034;7.006;2024-03-02T16:54:17;19.80;97.60
10662;DHT22;5379;51.034;7.006;2024-03-02T16:56:44;22.30;97.40
10662;DHT22;5379;51.034;7.006;2024-03-02T16:59:11;19.90;96.60
10662;DHT22;5379;51.034;7.006;2024-03-02T17:01:37;19.90;94.70
10662;DHT22;5379;51.034;7.006;2024-03-02T17:04:04;19.90;96.50
10662;DHT22;5379;51.034;7.006;2024-03-02T17:06:31;19.80;94.10
10662;DHT22;5379;51.034;7.006;2024-03-02T17:08:58;19.70;97.70
10662;DHT22;5379;51.034;7.006;2024-03-02T17:11:27;19.70;95.50
10662;DHT22;5379;51.034;7.006;2024-03-02T17:13:53;19.60;94.70
10662;DHT22;5379;51.034;7.006;2024-03-02T17:16:23;19.60;96.00
10662;DHT22;5379;51.034;7.006;2024-03-02T17:18:50;19.50;97.50
10662;DHT22;5379;51.034;7.006;2024-03-02T17:21:16;19.50;97.70
10662;DHT22;5379;51.034;7.006;2024-03-02T17:23:43;19.70;96.20
10662;DHT22;5379;51.034;7.006;2024-03-02T17:26:10;19.40;95.30
10662;DHT22;5379;51.034;7.006;2024-03-02T17:28:38;19.40;96.10
10662;DHT22;5379;51.034;7.006;2024-03-02T17:31:06;19.60;97.20
10662;DHT22;5379;51.034;7.006;2024-03-02T17:33:33;19.50;94.50
10662;DHT22;5379;51.034;7.006;2024-03-02T17:36:00;19.40;95.00
10662;DHT22;5379;51.034;7.006;2024-03-02T17:38:27;19.60;96.30
10662;DHT22;5379;51.034;7.006;2024-03-02T17:40:54;19.70;96.10
10662;DHT22;5379;51.034;7.006;2024-03-02T17:43:22;19.90;95.70
10662;DHT22;5379;51.034;7.006;2024-03-02T17:45:50;20.00;97.70
10662;DHT22;5379;51.034;7.006;2024-03-02T17:50:47;19.90;96.90
10662;DHT22;5379;51.034;7.006;2024-03-02T17:53:14;19.80;98.10
10662;DHT22;5379;51.034;7.006;2024-03-02T17:55:40;19.60;97.50
10662;DHT22;5379;51.034;7.006;2024-03-02T17:58:07;19.70;95.00
10662;DHT22;5379;51.034;7.006;2024-03-02T18:00:35;19.60;94.60
10662;DHT22;5379;51.034;7.006;2024-03-02T18:10:33;19.10;97.10
10662;DHT22;5379;51.034;7.006;2024-03-02T18:13:00;19.10;95.80
10662;DHT22;5379;51.034;7.006;2024-03-02T18:15:27;18.90;95.90
10662;DHT22;5379;51.034;7.006;2024-03-02T18:17:53;18.90;95.10
10662;DHT22;5379;51.034;7.006;2024-03-02T18:20:22;19.20;97.00
10662;DHT22;5379;51.034;7.006;2024-03-02T18:22:48;18.80;95.80
10662;DHT22;5379;51.034;7.006;2024-03-02T18:25:15;18.70;94.40
10662;DHT22;5379;51.034;7.006;2024-03-02T18:27:42;18.40;97.90
10662;DHT22;5379;51.034;7.006;2024-03-02T18:30:09;18.50;96.70
10662;DHT22;5379;51.034;7.006;2024-03-02T18:32:37;18.90;98.10
10662;DHT22;5379;51.034;7.006;2024-03-02T18:35:05;18.60;95.10
10662;DHT22;5379;51.034;7.006;2024-03-02T18:37:35;18.60;96.10
10662;DHT22;5379;51.034;7.006;2024-03-02T18:40:02;18.90;95.40
10662;DHT22;5379;51.034;7.006;2024-03-02T18:42:30;18.70;94.60
10662;DHT22;5379;51.034;7.006;2024-03-02T18:44:57;18.60;95.10
10662;DHT22;5379;51.034;7.006;2024-03-02T18:47:24;18.80;95.20
10662;DHT22;5379;51.034;7.006;2024-03-02T18:49:51;18.20;94.80
10662;DHT22;5379;51.034;7.006;2024-03-02T18:52:21;18.40;95.90
10662;DHT22;5379;51.034;7.006;2024-03-02T18:54:49;18.20;94.60
10662;DHT22;5379;51.034;7.006;2024-03-02T18:57:15;18.10;95.10
10662;DHT22;5379;51.034;7.006;2024-03-02T18:59:42;18.20;96.30
10662;DHT22;5379;51.034;7.006;2024-03-02T19:02:10;18.90;98.50
10662;DHT22;5379;51.034;7.006;2024-03-02T19:04:37;18.80;95.10
10662;DHT22;5379;51.034;7.006;2024-03-02T19:07:04;18.10;94.90
10662;DHT22;5379;51.034;7.006;2024-03-02T19:09:30;18.00;95.10
10662;DHT22;5379;51.034;7.006;2024-03-02T19:11:58;18.00;95.80
10662;DHT22;5379;51.034;7.006;2024-03-02T19:14:25;18.30;95.60
10662;DHT22;5379;51.034;7.006;2024-03-02T19:16:52;18.20;95.30
10662;DHT22;5379;51.034;7.006;2024-03-02T19:19:19;17.90;94.90
10662;DHT22;5379;51.034;7.006;2024-03-02T19:21:45;17.80;96.50
10662;DHT22;5379;51.034;7.006;2024-03-02T19:24:12;17.80;99.10
10662;DHT22;5379;51.034;7.006;2024-03-02T19:26:39;17.90;95.80
10662;DHT22;5379;51.034;7.006;2024-03-02T19:29:07;17.60;96.20
10662;DHT22;5379;51.034;7.006;2024-03-02T19:31:34;17.60;97.10
10662;DHT22;5379;51.034;7.006;2024-03-02T19:34:01;17.50;95.60
10662;DHT22;5379;51.034;7.006;2024-03-02T19:36:28;17.50;96.80
10662;DHT22;5379;51.034;7.006;2024-03-02T19:38:55;17.60;99.40
10662;DHT22;5379;51.034;7.006;2024-03-02T19:41:22;18.00;96.70
10662;DHT22;5379;51.034;7.006;2024-03-02T19:43:49;17.90;96.50
10662;DHT22;5379;51.034;7.006;2024-03-02T19:46:17;18.40;98.00
10662;DHT22;5379;51.034;7.006;2024-03-02T19:48:45;18.10;96.10
10662;DHT22;5379;51.034;7.006;2024-03-02T19:51:12;18.40;96.70
10662;DHT22;5379;51.034;7.006;2024-03-02T19:53:39;18.80;96.70
10662;DHT22;5379;51.034;7.006;2024-03-02T19:56:06;18.90;98.40
10662;DHT22;5379;51.034;7.006;2024-03-02T19:58:33;18.10;95.70
10662;DHT22;5379;51.034;7.006;2024-03-02T20:00:59;18.50;96.40
10662;DHT22;5379;51.034;7.006;2024-03-02T20:03:27;18.30;98.80
10662;DHT22;5379;51.034;7.006;2024-03-02T20:05:54;18.80;98.60
10662;DHT22;5379;51.034;7.006;2024-03-02T20:08:21;18.40;95.40
10662;DHT22;5379;51.034;7.006;2024-03-02T20:10:48;18.50;99.20
10662;DHT22;5379;51.034;7.006;2024-03-02T20:13:14;18.50;97.40
10662;DHT22;5379;51.034;7.006;2024-03-02T20:15:42;18.40;95.40
10662;DHT22;5379;51.034;7.006;2024-03-02T20:18:09;18.60;98.00
10662;DHT22;5379;51.034;7.006;2024-03-02T20:20:37;18.60;97.70
10662;DHT22;5379;51.034;7.006;2024-03-02T20:23:05;18.60;97.00
10662;DHT22;5379;51.034;7.006;2024-03-02T20:25:32;18.80;96.60
10662;DHT22;5379;51.034;7.006;2024-03-02T20:27:58;19.20;96.40
10662;DHT22;5379;51.034;7.006;2024-03-02T20:30:25;19.20;98.20
10662;DHT22;5379;51.034;7.006;2024-03-02T20:32:52;19.10;96.70
10662;DHT22;5379;51.034;7.006;2024-03-02T20:35:19;19.20;98.50
10662;DHT22;5379;51.034;7.006;2024-03-02T20:37:47;19.40;97.30
10662;DHT22;5379;51.034;7.006;2024-03-02T20:40:15;19.10;95.80
10662;DHT22;5379;51.034;7.006;2024-03-02T20:42:44;19.20;96.10
10662;DHT22;5379;51.034;7.006;2024-03-02T20:45:11;18.80;97.90
10662;DHT22;5379;51.034;7.006;2024-03-02T20:47:41;19.50;96.50
10662;DHT22;5379;51.034;7.006;2024-03-02T20:50:08;18.50;98.50